Time;durP1;ratioP1;P1;durP2;ratioP2;P2;SDS_P1;SDS_P2;PMS_P1;PMS_P2;Temp;Humidity;BMP_temperature;BMP_pressure;BME280_temperature;BME280_humidity;BME280_pressure;Samples;Min_cycle;Max_cycle;Signal;HPM_P1;HPM_P2
2023/05/13 00:01:25;;;;;;;20.80;17.13;;;8.00;99.90;;;;;;4146201;28;20045;-79
2023/05/13 00:03:27;;;;;;;26.17;22.27;;;8.00;99.90;;;;;;4149458;28;20432;-82
2023/05/13 00:05:28;;;;;;;22.73;19.67;;;7.90;99.90;;;;;;4162169;28;20025;-76
2023/05/13 00:07:29;;;;;;;23.00;18.63;;;8.00;99.90;;;;;;4158702;28;20111;-83
2023/05/13 00:09:30;;;;;;;12.07;8.70;;;7.90;99.90;;;;;;4145558;28;20034;-80
2023/05/13 00:11:32;;;;;;;10.10;9.10;;;8.00;99.90;;;;;;4146327;28;20034;-74
2023/05/13 00:13:34;;;;;;;9.43;7.27;;;8.00;99.90;;;;;;4160302;28;20021;-82
2023/05/13 00:15:35;;;;;;;8.63;6.03;;;7.90;99.90;;;;;;4162819;28;20535;-80
2023/05/13 00:17:36;;;;;;;9.83;6.47;;;7.90;99.90;;;;;;4161304;28;20095;-82
2023/05/13 00:19:38;;;;;;;8.47;6.33;;;7.90;99.90;;;;;;4154338;28;20084;-76
2023/05/13 00:21:40;;;;;;;10.23;7.20;;;7.90;99.90;;;;;;4157494;28;20171;-76
2023/05/13 00:23:41;;;;;;;7.03;5.37;;;7.90;99.90;;;;;;4150774;28;20042;-60
2023/05/13 00:25:43;;;;;;;7.03;5.30;;;7.90;99.90;;;;;;4145980;28;20026;-60
2023/05/13 00:27:44;;;;;;;11.17;5.83;;;7.90;99.90;;;;;;4146038;28;20038;-71
2023/05/13 00:29:45;;;;;;;8.67;5.67;;;7.90;99.90;;;;;;4145122;28;20072;-62
2023/05/13 00:31:46;;;;;;;8.37;5.50;;;7.90;99.90;;;;;;4146014;28;20022;-60
2023/05/13 00:33:47;;;;;;;8.13;6.23;;;7.80;99.90;;;;;;4145430;28;20038;-74
2023/05/13 00:35:49;;;;;;;6.60;5.87;;;7.90;99.90;;;;;;4155838;28;20441;-60
2023/05/13 00:37:50;;;;;;;8.10;5.87;;;7.90;99.90;;;;;;4161517;28;20045;-79
2023/05/13 00:39:51;;;;;;;7.33;5.63;;;7.90;99.90;;;;;;4161091;28;20135;-81
2023/05/13 00:41:52;;;;;;;9.03;6.53;;;7.80;99.90;;;;;;4156596;28;20030;-81
2023/05/13 00:43:57;;;;;;;8.73;6.20;;;7.80;99.90;;;;;;4154202;28;20509;-80
2023/05/13 00:45:58;;;;;;;7.80;5.70;;;7.80;99.90;;;;;;4162662;28;20038;-83
2023/05/13 00:47:59;;;;;;;9.43;5.87;;;7.80;99.90;;;;;;4154413;28;20412;-80
2023/05/13 00:50:01;;;;;;;5.40;4.90;;;7.80;99.90;;;;;;4147117;28;20034;-75
2023/05/13 00:52:03;;;;;;;8.30;5.57;;;7.70;99.90;;;;;;4148504;28;20029;-81
2023/05/13 00:54:04;;;;;;;7.70;5.20;;;7.70;99.90;;;;;;4162134;28;20075;-82
2023/05/13 00:56:06;;;;;;;6.33;5.37;;;7.70;99.90;;;;;;4158854;28;20037;-83
2023/05/13 00:58:07;;;;;;;7.10;4.97;;;7.70;99.90;;;;;;4162227;28;20053;-80
2023/05/13 01:00:09;;;;;;;7.27;5.30;;;7.60;99.90;;;;;;4160465;28;20026;-80
2023/05/13 01:02:17;;;;;;;7.67;5.40;;;7.60;99.90;;;;;;4148439;28;20038;-80
2023/05/13 01:04:43;;;;;;;6.07;5.27;;;7.60;99.90;;;;;;4145344;28;20034;-61
2023/05/13 01:07:14;;;;;;;6.97;5.50;;;7.60;99.90;;;;;;4146388;28;20153;-82
2023/05/13 01:09:31;;;;;;;7.47;5.80;;;7.60;99.90;;;;;;4127307;28;20046;-81
2023/05/13 01:11:38;;;;;;;7.73;5.47;;;7.50;99.90;;;;;;4149181;28;20104;-81
2023/05/13 01:13:42;;;;;;;6.90;5.37;;;7.50;99.90;;;;;;4153690;28;20079;-82
2023/05/13 01:16:01;;;;;;;6.83;5.83;;;7.50;99.90;;;;;;4148510;28;20021;-79
2023/05/13 01:18:11;;;;;;;8.43;5.50;;;7.50;99.90;;;;;;4145122;28;20079;-61
2023/05/13 01:20:12;;;;;;;8.52;6.13;;;7.50;99.90;;;;;;4146026;28;20034;-76
2023/05/13 01:22:13;;;;;;;9.27;6.33;;;7.40;99.90;;;;;;4160014;28;20103;-77
2023/05/13 01:24:14;;;;;;;11.70;6.20;;;7.50;99.90;;;;;;4163118;28;20374;-61
2023/05/13 01:26:15;;;;;;;8.67;5.77;;;7.40;99.90;;;;;;4159501;28;20038;-81
2023/05/13 01:28:17;;;;;;;6.87;5.73;;;7.40;99.90;;;;;;4160628;28;20057;-79
2023/05/13 01:30:19;;;;;;;9.87;5.87;;;7.40;99.90;;;;;;4160861;28;20037;-82
2023/05/13 01:32:21;;;;;;;6.83;6.10;;;7.40;99.90;;;;;;4149646;28;20038;-79
2023/05/13 01:34:25;;;;;;;8.10;6.27;;;7.40;99.90;;;;;;4144211;28;20046;-68
2023/05/13 01:36:26;;;;;;;10.97;6.87;;;7.40;99.90;;;;;;4147474;28;20547;-66
2023/05/13 01:38:28;;;;;;;8.73;5.80;;;7.40;99.90;;;;;;4153215;28;20131;-75
2023/05/13 01:40:30;;;;;;;6.80;6.10;;;7.40;99.90;;;;;;4160878;28;20029;-79
2023/05/13 01:42:33;;;;;;;6.63;5.90;;;7.40;99.90;;;;;;4148015;28;20533;-71
2023/05/13 01:44:34;;;;;;;7.27;5.67;;;7.30;99.90;;;;;;4155428;28;20033;-75
2023/05/13 01:46:38;;;;;;;10.60;6.77;;;7.40;99.90;;;;;;4145568;28;20480;-76
2023/05/13 01:48:40;;;;;;;10.23;6.57;;;7.40;99.90;;;;;;4144352;28;20030;-60
2023/05/13 01:50:41;;;;;;;9.53;6.43;;;7.40;99.90;;;;;;4128842;28;20081;-61
2023/05/13 01:52:42;;;;;;;9.67;6.83;;;7.40;99.90;;;;;;4157939;28;20027;-80
2023/05/13 01:54:43;;;;;;;8.27;6.67;;;7.40;99.90;;;;;;4161281;28;20029;-79
2023/05/13 01:56:44;;;;;;;7.80;6.03;;;7.40;99.90;;;;;;4160515;28;20104;-82
2023/05/13 01:58:45;;;;;;;8.07;6.90;;;7.50;99.90;;;;;;4160289;28;20030;-80
2023/05/13 02:00:46;;;;;;;9.47;6.63;;;7.50;99.90;;;;;;4159325;28;20030;-78
2023/05/13 02:02:48;;;;;;;8.83;6.87;;;7.50;99.90;;;;;;4148667;28;20413;-70
2023/05/13 02:04:49;;;;;;;9.63;6.73;;;7.50;99.90;;;;;;4151909;28;20076;-78
2023/05/13 02:06:50;;;;;;;8.23;6.80;;;7.50;99.90;;;;;;4164256;28;20033;-77
2023/05/13 02:08:51;;;;;;;9.17;7.53;;;7.60;99.90;;;;;;4144458;28;20034;-78
2023/05/13 02:10:59;;;;;;;9.03;7.17;;;7.50;99.90;;;;;;4164011;28;20030;-82
2023/05/13 02:13:00;;;;;;;10.80;7.97;;;7.50;99.90;;;;;;4162506;28;20115;-79
2023/05/13 02:15:01;;;;;;;10.77;7.97;;;7.60;99.90;;;;;;4158725;28;20084;-82
2023/05/13 02:17:03;;;;;;;10.90;7.70;;;7.60;99.90;;;;;;4148260;28;20042;-78
2023/05/13 02:19:05;;;;;;;11.23;8.30;;;7.60;99.90;;;;;;4147378;28;20087;-77
2023/05/13 02:21:06;;;;;;;11.00;8.13;;;7.50;99.90;;;;;;4160782;28;20099;-71
2023/05/13 02:23:07;;;;;;;10.63;7.27;;;7.50;99.90;;;;;;4149241;28;20046;-79
2023/05/13 02:25:09;;;;;;;9.83;7.47;;;7.50;99.90;;;;;;4159417;28;20087;-71
2023/05/13 02:27:11;;;;;;;9.33;7.03;;;7.50;99.90;;;;;;4147628;28;20795;-79
2023/05/13 02:29:13;;;;;;;11.07;7.37;;;7.60;99.90;;;;;;4148374;28;20095;-76
2023/05/13 02:31:14;;;;;;;10.43;8.00;;;7.60;99.90;;;;;;4147357;28;20072;-74
2023/05/13 02:33:15;;;;;;;9.50;7.33;;;7.60;99.90;;;;;;4153219;28;20029;-82
2023/05/13 02:35:16;;;;;;;10.13;7.50;;;7.60;99.90;;;;;;4163659;28;20037;-79
2023/05/13 02:37:17;;;;;;;9.30;8.27;;;7.50;99.90;;;;;;4152182;28;20104;-71
2023/05/13 02:39:18;;;;;;;10.27;8.27;;;7.50;99.90;;;;;;4147726;28;20030;-79
2023/05/13 02:41:19;;;;;;;10.67;7.70;;;7.50;99.90;;;;;;4147350;28;20437;-60
2023/05/13 02:43:22;;;;;;;10.87;8.63;;;7.50;99.90;;;;;;4130800;28;20050;-76
2023/05/13 02:45:23;;;;;;;8.30;7.30;;;7.50;99.90;;;;;;4157643;28;20034;-62
2023/05/13 02:47:24;;;;;;;10.00;8.37;;;7.50;99.90;;;;;;4147660;28;20030;-73
2023/05/13 02:49:25;;;;;;;11.77;8.13;;;7.50;99.90;;;;;;4147032;28;20026;-72
2023/05/13 02:51:26;;;;;;;9.27;7.30;;;7.50;99.90;;;;;;4152454;28;20071;-61
2023/05/13 02:53:28;;;;;;;12.17;7.90;;;7.40;99.90;;;;;;4163712;28;20424;-61
2023/05/13 02:55:29;;;;;;;9.67;7.10;;;7.40;99.90;;;;;;4164011;28;20049;-80
2023/05/13 02:57:30;;;;;;;10.93;6.43;;;7.40;99.90;;;;;;4156785;28;20080;-77
2023/05/13 02:59:31;;;;;;;14.13;7.27;;;7.40;99.90;;;;;;4148015;28;20050;-79
2023/05/13 03:01:32;;;;;;;7.67;5.67;;;7.40;99.90;;;;;;4155136;28;20037;-67
2023/05/13 03:03:33;;;;;;;6.73;5.70;;;7.40;99.90;;;;;;4146199;28;20449;-62
2023/05/13 03:05:35;;;;;;;9.87;6.30;;;7.50;99.90;;;;;;4159992;28;20084;-62
2023/05/13 03:07:36;;;;;;;8.27;5.80;;;7.50;99.90;;;;;;4161212;28;20091;-62
2023/05/13 03:09:41;;;;;;;8.00;5.83;;;7.50;99.90;;;;;;4132514;28;20043;-66
2023/05/13 03:11:42;;;;;;;10.97;6.07;;;7.50;99.90;;;;;;4147092;28;20034;-61
2023/05/13 03:13:43;;;;;;;8.20;5.47;;;7.50;99.90;;;;;;4156762;28;20084;-63
2023/05/13 03:15:44;;;;;;;7.03;5.27;;;7.50;99.90;;;;;;4151435;28;20038;-60
2023/05/13 03:17:45;;;;;;;6.13;5.17;;;7.50;99.90;;;;;;4162484;28;20441;-64
2023/05/13 03:19:46;;;;;;;7.33;5.73;;;7.50;99.90;;;;;;4157969;28;20060;-62
2023/05/13 03:21:48;;;;;;;6.70;5.30;;;7.50;99.90;;;;;;4155231;28;20481;-62
2023/05/13 03:23:49;;;;;;;6.97;5.50;;;7.50;99.90;;;;;;4158780;28;20092;-62
2023/05/13 03:25:50;;;;;;;8.03;6.07;;;7.50;99.90;;;;;;4148064;28;20029;-61
2023/05/13 03:27:51;;;;;;;7.13;4.67;;;7.60;99.90;;;;;;4145014;28;20380;-62
2023/05/13 03:29:52;;;;;;;7.07;5.10;;;7.60;99.90;;;;;;4137896;28;20046;-66
2023/05/13 03:31:53;;;;;;;6.87;5.40;;;7.60;99.90;;;;;;4162316;28;20037;-75
2023/05/13 03:33:54;;;;;;;7.10;5.23;;;7.60;99.90;;;;;;4163150;28;20026;-61
2023/05/13 03:35:56;;;;;;;8.67;5.83;;;7.70;99.90;;;;;;4153956;28;20029;-72
2023/05/13 03:37:57;;;;;;;7.77;5.83;;;7.70;99.90;;;;;;4129558;28;20089;-82
2023/05/13 03:39:58;;;;;;;6.53;5.10;;;7.70;99.90;;;;;;4147212;28;20018;-73
2023/05/13 03:42:00;;;;;;;6.70;5.47;;;7.70;99.90;;;;;;4151342;28;20092;-75
2023/05/13 03:44:01;;;;;;;7.93;5.07;;;7.70;99.90;;;;;;4150406;28;20076;-83
2023/05/13 03:46:02;;;;;;;6.47;5.20;;;7.80;99.90;;;;;;4152563;28;20091;-82
2023/05/13 03:48:03;;;;;;;6.67;5.20;;;7.80;99.90;;;;;;4158363;28;20490;-72
2023/05/13 03:50:05;;;;;;;6.83;4.73;;;7.80;99.90;;;;;;4158324;28;20050;-71
2023/05/13 03:52:09;;;;;;;7.63;5.40;;;7.80;99.90;;;;;;4147868;28;20033;-65
2023/05/13 03:54:10;;;;;;;7.43;5.33;;;7.80;99.90;;;;;;4148935;28;20030;-75
2023/05/13 03:56:12;;;;;;;5.90;5.27;;;7.80;99.90;;;;;;4162237;28;20485;-66
2023/05/13 03:58:15;;;;;;;6.77;5.23;;;7.80;99.90;;;;;;4151209;28;20046;-63
2023/05/13 04:00:17;;;;;;;7.73;5.67;;;7.80;99.90;;;;;;4147834;28;20100;-67
2023/05/13 04:02:20;;;;;;;7.17;5.03;;;7.80;99.90;;;;;;4148225;28;20501;-79
2023/05/13 04:04:21;;;;;;;7.23;5.60;;;7.80;99.90;;;;;;4158239;28;20099;-74
2023/05/13 04:06:22;;;;;;;6.57;5.30;;;7.90;99.90;;;;;;4154601;28;20560;-75
2023/05/13 04:08:23;;;;;;;6.23;5.50;;;7.90;99.90;;;;;;4131086;28;20046;-75
2023/05/13 04:10:24;;;;;;;6.60;5.47;;;7.90;99.90;;;;;;4149578;28;20441;-72
2023/05/13 04:12:25;;;;;;;6.20;5.40;;;8.00;99.90;;;;;;4161639;28;20064;-80
2023/05/13 04:14:27;;;;;;;7.30;5.30;;;8.00;99.90;;;;;;4160097;28;20045;-83
2023/05/13 04:16:28;;;;;;;7.33;5.10;;;8.00;99.90;;;;;;4154894;28;20038;-62
2023/05/13 04:18:30;;;;;;;7.17;5.37;;;8.00;99.90;;;;;;4160962;28;20033;-76
2023/05/13 04:20:32;;;;;;;7.83;4.83;;;8.00;99.90;;;;;;4162312;28;20049;-73
2023/05/13 04:22:34;;;;;;;5.53;4.57;;;8.00;99.90;;;;;;4147064;28;20041;-82
2023/05/13 04:24:35;;;;;;;7.53;5.23;;;8.10;99.90;;;;;;4144517;28;20026;-72
2023/05/13 04:26:37;;;;;;;6.70;5.47;;;8.10;99.90;;;;;;4132277;28;20081;-77
2023/05/13 04:28:38;;;;;;;6.60;5.17;;;8.20;99.90;;;;;;4144937;28;20030;-61
2023/05/13 04:30:39;;;;;;;7.20;5.47;;;8.20;99.90;;;;;;4148775;28;20033;-61
2023/05/13 04:32:40;;;;;;;10.50;5.80;;;8.20;99.90;;;;;;4158963;28;20437;-64
2023/05/13 04:34:41;;;;;;;5.97;5.37;;;8.30;99.90;;;;;;4147283;28;20092;-66
2023/05/13 04:36:43;;;;;;;6.97;5.10;;;8.30;99.90;;;;;;4151101;28;20445;-64
2023/05/13 04:38:44;;;;;;;8.23;5.30;;;8.30;99.90;;;;;;4161434;28;20037;-57
2023/05/13 04:40:46;;;;;;;6.57;5.33;;;8.30;99.90;;;;;;4157023;28;21031;-77
2023/05/13 04:42:53;;;;;;;7.87;5.40;;;8.30;99.90;;;;;;4161742;28;20067;-73
2023/05/13 04:44:54;;;;;;;7.27;5.80;;;8.30;99.90;;;;;;4148447;28;20465;-68
2023/05/13 04:46:55;;;;;;;7.70;5.43;;;8.40;99.90;;;;;;4153944;28;20081;-65
2023/05/13 04:48:56;;;;;;;8.73;5.50;;;8.40;99.90;;;;;;4144563;28;20108;-72
2023/05/13 04:50:57;;;;;;;8.17;5.60;;;8.40;99.90;;;;;;4148251;28;20037;-74
2023/05/13 04:52:59;;;;;;;7.63;5.37;;;8.40;99.90;;;;;;4144552;28;20025;-72
2023/05/13 04:55:00;;;;;;;6.87;5.43;;;8.40;99.90;;;;;;4161086;28;20212;-61
2023/05/13 04:57:02;;;;;;;8.00;5.87;;;8.40;99.90;;;;;;4150510;28;20100;-73
2023/05/13 04:59:04;;;;;;;6.60;5.20;;;8.50;99.90;;;;;;4157866;28;20049;-66
2023/05/13 05:01:05;;;;;;;8.57;5.50;;;8.40;99.90;;;;;;4154463;28;20085;-70
2023/05/13 05:03:06;;;;;;;7.03;5.17;;;8.40;99.90;;;;;;4143038;28;20026;-75
2023/05/13 05:05:07;;;;;;;7.47;5.57;;;8.40;99.90;;;;;;4158398;28;20118;-73
2023/05/13 05:07:08;;;;;;;7.90;5.73;;;8.40;99.90;;;;;;4160374;28;20045;-70
2023/05/13 05:09:10;;;;;;;7.73;5.33;;;8.40;99.90;;;;;;4161370;28;20417;-73
2023/05/13 05:11:11;;;;;;;7.60;5.83;;;8.50;99.90;;;;;;4160383;28;20079;-76
2023/05/13 05:13:12;;;;;;;9.27;5.97;;;8.50;99.90;;;;;;4160976;28;20482;-60
2023/05/13 05:15:16;;;;;;;7.50;5.53;;;8.50;99.90;;;;;;4160700;28;20030;-72
2023/05/13 05:17:17;;;;;;;9.53;5.70;;;8.60;99.90;;;;;;4161209;28;20037;-60
2023/05/13 05:19:22;;;;;;;6.97;5.00;;;8.60;99.90;;;;;;4161093;28;20084;-72
2023/05/13 05:21:23;;;;;;;6.37;4.70;;;8.70;99.90;;;;;;4160721;28;20054;-73
2023/05/13 05:23:24;;;;;;;6.93;5.17;;;8.70;99.90;;;;;;4160549;28;20111;-71
2023/05/13 05:25:26;;;;;;;6.50;5.30;;;8.80;99.90;;;;;;4160263;28;20041;-63
2023/05/13 05:27:27;;;;;;;8.00;5.90;;;8.90;99.90;;;;;;4161041;28;20441;-67
2023/05/13 05:29:28;;;;;;;6.33;4.70;;;8.90;99.90;;;;;;4142234;28;20053;-60
2023/05/13 05:31:29;;;;;;;7.53;5.73;;;8.90;99.90;;;;;;4161280;28;20041;-68
2023/05/13 05:33:31;;;;;;;5.97;5.37;;;8.90;99.90;;;;;;4160426;28;20037;-63
2023/05/13 05:35:35;;;;;;;5.80;4.70;;;9.00;99.90;;;;;;4164691;28;20041;-61
2023/05/13 05:37:37;;;;;;;8.03;4.73;;;9.00;99.90;;;;;;4162939;28;20049;-64
2023/05/13 05:39:39;;;;;;;6.57;4.40;;;8.90;99.90;;;;;;4164626;28;20083;-63
2023/05/13 05:41:41;;;;;;;5.87;5.27;;;9.00;99.90;;;;;;4162810;28;20038;-77
2023/05/13 05:43:42;;;;;;;6.37;5.33;;;8.90;99.90;;;;;;4164796;28;20034;-69
2023/05/13 05:45:43;;;;;;;4.87;4.03;;;9.00;99.90;;;;;;4162710;28;20076;-69
2023/05/13 05:47:44;;;;;;;7.23;4.30;;;9.00;99.90;;;;;;4164608;28;20025;-74
2023/05/13 05:49:45;;;;;;;5.57;4.67;;;9.00;99.90;;;;;;4163630;28;20063;-76
2023/05/13 05:51:46;;;;;;;4.47;3.77;;;8.90;99.90;;;;;;4164233;28;20029;-75
2023/05/13 05:53:47;;;;;;;5.90;4.63;;;8.90;99.90;;;;;;4163351;28;20034;-62
2023/05/13 05:55:48;;;;;;;5.53;4.03;;;9.00;99.90;;;;;;4145746;28;20038;-75
2023/05/13 05:57:50;;;;;;;7.77;4.77;;;9.00;99.90;;;;;;4163465;28;20053;-76
2023/05/13 05:59:51;;;;;;;6.07;4.50;;;9.10;99.90;;;;;;4163038;28;20041;-70
2023/05/13 06:01:52;;;;;;;6.27;3.93;;;9.10;99.90;;;;;;4164545;28;20064;-69
2023/05/13 06:03:53;;;;;;;6.77;4.90;;;9.10;99.90;;;;;;4163431;28;20136;-70
2023/05/13 06:05:55;;;;;;;7.20;5.40;;;9.10;99.90;;;;;;4163861;28;20045;-75
2023/05/13 06:07:56;;;;;;;7.17;4.43;;;9.00;99.90;;;;;;4162960;28;20040;-78
2023/05/13 06:09:57;;;;;;;6.20;4.83;;;9.10;99.90;;;;;;4164342;28;20029;-73
2023/05/13 06:11:58;;;;;;;5.57;4.20;;;9.20;99.90;;;;;;4162201;28;20580;-65
2023/05/13 06:13:59;;;;;;;5.57;3.97;;;9.30;99.90;;;;;;4163943;28;20045;-59
2023/05/13 06:16:00;;;;;;;6.70;4.47;;;9.30;99.90;;;;;;4162679;28;20045;-61
2023/05/13 06:18:04;;;;;;;5.63;4.60;;;9.30;99.90;;;;;;4145898;28;20580;-61
2023/05/13 06:20:05;;;;;;;4.80;4.20;;;9.40;99.90;;;;;;4163043;28;20029;-63
2023/05/13 06:22:07;;;;;;;5.50;3.90;;;9.50;99.90;;;;;;4163879;28;20461;-60
2023/05/13 06:24:08;;;;;;;6.93;5.20;;;9.50;99.90;;;;;;4163200;28;20029;-60
2023/05/13 06:26:09;;;;;;;8.83;4.80;;;9.60;99.90;;;;;;4163220;28;20535;-60
2023/05/13 06:28:11;;;;;;;5.57;4.20;;;9.70;99.90;;;;;;4163164;28;20084;-75
2023/05/13 06:30:12;;;;;;;5.27;4.00;;;9.70;99.90;;;;;;4162940;28;20075;-70
2023/05/13 06:32:14;;;;;;;5.30;4.53;;;9.70;99.90;;;;;;4163584;28;20034;-60
2023/05/13 06:34:15;;;;;;;6.90;4.60;;;9.80;99.90;;;;;;4162959;28;20029;-75
2023/05/13 06:36:16;;;;;;;6.53;4.80;;;9.90;99.90;;;;;;4163783;28;20138;-75
2023/05/13 06:38:17;;;;;;;12.27;6.07;;;10.00;99.90;;;;;;4162441;28;20493;-71
2023/05/13 06:40:18;;;;;;;6.00;4.43;;;10.10;99.90;;;;;;4145752;28;20402;-60
2023/05/13 06:42:20;;;;;;;5.60;3.80;;;10.10;99.90;;;;;;4162527;28;20535;-64
2023/05/13 06:44:21;;;;;;;7.37;4.47;;;10.00;99.90;;;;;;4163821;28;20370;-73
2023/05/13 06:46:23;;;;;;;5.40;4.47;;;10.10;99.90;;;;;;4161810;28;21477;-75
2023/05/13 06:48:24;;;;;;;5.37;3.60;;;10.10;99.90;;;;;;4163502;28;20029;-76
2023/05/13 06:50:25;;;;;;;5.00;4.00;;;10.10;99.90;;;;;;4162779;28;20022;-76
2023/05/13 06:52:26;;;;;;;5.77;3.93;;;10.20;99.90;;;;;;4163245;28;20469;-75
2023/05/13 06:54:27;;;;;;;6.77;3.90;;;10.30;99.90;;;;;;4162877;28;20508;-75
2023/05/13 06:56:29;;;;;;;7.40;3.60;;;10.30;99.90;;;;;;4162445;28;20440;-75
2023/05/13 06:58:30;;;;;;;5.87;4.47;;;10.30;99.90;;;;;;4162765;28;20455;-61
2023/05/13 07:00:31;;;;;;;6.40;3.63;;;10.30;99.90;;;;;;4162244;28;20083;-71
2023/05/13 07:02:32;;;;;;;6.13;4.17;;;10.20;99.90;;;;;;4162549;28;20064;-69
2023/05/13 07:04:34;;;;;;;6.13;3.93;;;10.30;99.90;;;;;;4144654;28;20030;-75
2023/05/13 07:06:35;;;;;;;7.43;4.80;;;10.30;99.90;;;;;;4162666;28;20072;-72
2023/05/13 07:08:36;;;;;;;7.30;4.70;;;10.30;99.90;;;;;;4162160;28;20037;-65
2023/05/13 07:10:37;;;;;;;6.93;4.20;;;10.40;99.90;;;;;;4163178;28;20042;-59
2023/05/13 07:12:38;;;;;;;7.57;4.67;;;10.40;99.90;;;;;;4161927;28;20029;-76
2023/05/13 07:14:39;;;;;;;6.77;5.03;;;10.40;99.90;;;;;;4145148;28;20050;-61
2023/05/13 07:16:40;;;;;;;7.03;5.10;;;10.40;99.90;;;;;;4161832;28;20473;-75
2023/05/13 07:18:42;;;;;;;6.23;4.53;;;10.40;99.90;;;;;;4162935;28;20088;-72
2023/05/13 07:20:43;;;;;;;8.17;4.60;;;10.50;99.90;;;;;;4161823;28;20048;-61
2023/05/13 07:22:44;;;;;;;5.53;4.23;;;10.50;99.90;;;;;;4162636;28;20083;-76
2023/05/13 07:24:45;;;;;;;8.83;3.97;;;10.50;99.90;;;;;;4162138;28;20033;-61
2023/05/13 07:26:46;;;;;;;4.23;3.60;;;10.50;99.90;;;;;;4161077;28;20091;-74
2023/05/13 07:28:47;;;;;;;4.63;4.00;;;10.50;99.90;;;;;;4162213;28;20545;-61
2023/05/13 07:30:49;;;;;;;5.67;3.77;;;10.50;99.90;;;;;;4161590;28;20095;-62
2023/05/13 07:32:50;;;;;;;4.23;3.77;;;10.50;99.90;;;;;;4162598;28;20091;-70
2023/05/13 07:34:51;;;;;;;5.57;4.00;;;10.60;99.90;;;;;;4162017;28;20099;-70
2023/05/13 07:36:52;;;;;;;4.53;4.07;;;10.60;99.90;;;;;;4162479;28;20042;-74
2023/05/13 07:38:53;;;;;;;4.50;3.73;;;10.60;99.90;;;;;;4161380;28;20091;-75
2023/05/13 07:40:55;;;;;;;7.23;3.83;;;10.50;99.90;;;;;;4162514;28;20076;-68
2023/05/13 07:42:56;;;;;;;6.70;4.07;;;10.50;99.90;;;;;;4160968;28;20037;-75
2023/05/13 07:44:57;;;;;;;6.23;3.90;;;10.50;99.90;;;;;;4162535;28;20033;-66
2023/05/13 07:46:58;;;;;;;4.40;3.63;;;10.50;99.90;;;;;;4161298;28;20038;-76
2023/05/13 07:48:59;;;;;;;5.33;3.83;;;10.50;99.90;;;;;;4162237;28;20444;-59
2023/05/13 07:51:00;;;;;;;9.00;4.23;;;10.50;99.90;;;;;;4161338;28;20067;-73
2023/05/13 07:53:02;;;;;;;5.23;3.80;;;10.50;99.90;;;;;;4162223;28;20424;-72
2023/05/13 07:55:04;;;;;;;6.03;3.50;;;10.50;99.90;;;;;;4161740;28;20099;-76
2023/05/13 07:57:05;;;;;;;10.17;4.90;;;10.50;99.90;;;;;;4161071;28;20053;-60
2023/05/13 07:59:06;;;;;;;6.73;4.60;;;10.50;99.90;;;;;;4161849;28;20037;-62
2023/05/13 08:01:08;;;;;;;4.57;3.87;;;10.50;99.90;;;;;;4161118;28;20026;-61
2023/05/13 08:03:11;;;;;;;6.50;4.27;;;10.50;99.90;;;;;;4162289;28;20026;-71
2023/05/13 08:05:12;;;;;;;6.30;4.40;;;10.50;99.90;;;;;;4161173;28;20132;-72
2023/05/13 08:07:13;;;;;;;7.20;5.07;;;10.60;99.90;;;;;;4162324;28;20021;-65
2023/05/13 08:09:14;;;;;;;5.00;4.40;;;10.60;99.90;;;;;;4161220;28;20034;-75
2023/05/13 08:11:15;;;;;;;8.37;4.47;;;10.70;99.90;;;;;;4161485;28;20095;-75
2023/05/13 08:13:16;;;;;;;7.43;5.07;;;10.70;99.90;;;;;;4161232;28;20033;-60
2023/05/13 08:15:18;;;;;;;5.77;4.90;;;10.80;99.90;;;;;;4162240;28;20025;-72
2023/05/13 08:17:19;;;;;;;6.70;5.40;;;10.90;99.90;;;;;;4161058;28;20075;-75
2023/05/13 08:19:20;;;;;;;7.63;4.90;;;11.00;99.90;;;;;;4162139;28;20045;-75
2023/05/13 08:21:21;;;;;;;4.80;3.83;;;11.00;99.90;;;;;;4143361;28;20104;-74
2023/05/13 08:23:24;;;;;;;6.70;3.87;;;11.10;99.90;;;;;;4161814;28;20025;-76
2023/05/13 08:25:25;;;;;;;6.20;3.83;;;11.10;99.90;;;;;;4161160;28;20362;-67
2023/05/13 08:27:26;;;;;;;5.20;4.10;;;11.10;99.90;;;;;;4161314;28;20079;-74
2023/05/13 08:29:28;;;;;;;3.70;3.20;;;11.10;99.90;;;;;;4161447;28;20033;-74
2023/05/13 08:31:31;;;;;;;6.23;4.13;;;11.10;99.90;;;;;;4160187;28;20037;-69
2023/05/13 08:33:33;;;;;;;4.63;3.40;;;11.10;99.90;;;;;;4161435;28;20029;-59
2023/05/13 08:35:34;;;;;;;4.87;3.30;;;11.10;99.90;;;;;;4161102;28;20030;-69
2023/05/13 08:37:35;;;;;;;6.87;2.93;;;11.20;99.90;;;;;;4143204;28;20038;-60
2023/05/13 08:39:36;;;;;;;5.33;3.07;;;11.20;99.90;;;;;;4160672;28;20013;-76
2023/05/13 08:41:40;;;;;;;3.10;2.80;;;11.20;99.90;;;;;;4143503;28;20042;-59
2023/05/13 08:43:42;;;;;;;4.70;2.73;;;11.30;99.90;;;;;;4160509;28;20456;-73
2023/05/13 08:45:46;;;;;;;5.13;3.07;;;11.30;99.90;;;;;;4143667;28;20061;-76
2023/05/13 08:47:53;;;;;;;5.13;3.13;;;11.30;99.90;;;;;;4160354;28;20103;-69
2023/05/13 08:49:55;;;;;;;4.87;2.63;;;11.40;99.90;;;;;;4161404;28;20355;-70
2023/05/13 08:51:56;;;;;;;3.57;2.97;;;11.50;99.90;;;;;;4159416;28;20548;-68
2023/05/13 08:53:58;;;;;;;6.47;3.60;;;11.60;99.90;;;;;;4161609;28;20034;-75
2023/05/13 08:56:00;;;;;;;4.30;2.90;;;11.70;99.90;;;;;;4159910;28;20026;-66
2023/05/13 08:58:01;;;;;;;5.03;3.30;;;11.80;99.90;;;;;;4160484;28;20050;-61
2023/05/13 09:00:04;;;;;;;5.57;3.00;;;11.90;99.90;;;;;;4159999;28;20513;-76
2023/05/13 09:02:05;;;;;;;7.13;3.37;;;11.90;99.90;;;;;;4160992;28;20079;-71
2023/05/13 09:04:09;;;;;;;5.03;3.33;;;12.00;99.90;;;;;;4160125;28;20041;-62
2023/05/13 09:06:10;;;;;;;6.03;3.30;;;12.00;99.90;;;;;;4161016;28;20037;-61
2023/05/13 09:08:11;;;;;;;8.07;3.73;;;12.00;99.90;;;;;;4161145;28;20091;-74
2023/05/13 09:10:12;;;;;;;5.53;3.80;;;12.10;99.90;;;;;;4159810;28;20033;-75
2023/05/13 09:12:45;;;;;;;3.93;2.83;;;12.20;99.90;;;;;;4161104;28;20037;-67
2023/05/13 09:14:47;;;;;;;5.40;3.43;;;12.20;99.90;;;;;;4160111;28;20063;-64
2023/05/13 09:16:48;;;;;;;5.60;3.67;;;12.20;99.90;;;;;;4161163;28;20079;-65
2023/05/13 09:18:54;;;;;;;3.47;2.93;;;12.30;99.90;;;;;;4160162;28;20087;-69
2023/05/13 09:20:55;;;;;;;4.13;3.07;;;12.30;99.90;;;;;;4160820;28;20120;-61
2023/05/13 09:23:02;;;;;;;5.03;2.83;;;12.30;99.90;;;;;;4159460;28;20049;-74
2023/05/13 09:25:04;;;;;;;2.83;2.63;;;12.30;99.90;;;;;;4161379;28;20079;-69
2023/05/13 09:27:05;;;;;;;4.13;3.10;;;12.40;99.90;;;;;;4159879;28;20060;-60
2023/05/13 09:29:21;;;;;;;4.20;3.20;;;12.40;99.90;;;;;;4161142;28;20080;-60
2023/05/13 09:31:34;;;;;;;4.17;3.10;;;12.40;99.90;;;;;;4159539;28;20041;-61
2023/05/13 09:33:35;;;;;;;4.03;3.10;;;12.40;99.90;;;;;;4160737;28;20095;-59
2023/05/13 09:35:38;;;;;;;3.90;3.33;;;12.30;99.90;;;;;;4160204;28;20033;-61
2023/05/13 09:37:39;;;;;;;4.03;3.20;;;12.30;99.90;;;;;;4143251;28;20424;-61
2023/05/13 09:39:41;;;;;;;4.70;3.50;;;12.30;99.90;;;;;;4159172;28;20042;-61
2023/05/13 09:41:42;;;;;;;7.27;3.40;;;12.30;99.90;;;;;;4160962;28;20029;-61
2023/05/13 09:43:43;;;;;;;4.00;3.50;;;12.40;99.90;;;;;;4160020;28;20037;-61
2023/05/13 09:45:44;;;;;;;3.97;3.40;;;12.50;99.90;;;;;;4161157;28;20076;-61
2023/05/13 09:47:52;;;;;;;3.83;3.33;;;12.40;99.90;;;;;;4160247;28;20025;-61
2023/05/13 09:49:56;;;;;;;9.80;4.47;;;12.50;99.90;;;;;;4160846;28;20383;-61
2023/05/13 09:51:57;;;;;;;5.50;3.60;;;12.60;99.90;;;;;;4159333;28;20378;-59
2023/05/13 09:54:05;;;;;;;6.70;4.10;;;12.80;99.90;;;;;;4159342;28;20068;-60
2023/05/13 09:56:09;;;;;;;6.57;4.20;;;12.80;99.90;;;;;;4160117;28;20037;-59
2023/05/13 09:58:11;;;;;;;5.53;3.93;;;12.80;99.90;;;;;;4159387;28;20061;-62
2023/05/13 10:00:13;;;;;;;3.73;3.20;;;12.90;99.90;;;;;;4160606;28;20095;-61
2023/05/13 10:02:15;;;;;;;6.13;3.73;;;13.00;99.90;;;;;;4159551;28;20033;-60
2023/05/13 10:04:16;;;;;;;4.43;3.23;;;13.10;99.90;;;;;;4160569;28;20029;-59
2023/05/13 10:06:21;;;;;;;2.87;2.60;;;13.10;99.90;;;;;;4159321;28;20055;-60
2023/05/13 10:08:23;;;;;;;4.00;3.00;;;13.10;99.90;;;;;;4161119;28;20082;-60
2023/05/13 10:10:25;;;;;;;4.20;3.03;;;13.10;99.90;;;;;;4159044;28;20107;-60
2023/05/13 10:12:29;;;;;;;3.10;2.50;;;13.30;99.90;;;;;;4160732;28;20909;-60
2023/05/13 10:14:30;;;;;;;4.47;2.40;;;13.40;99.90;;;;;;4159366;28;20041;-60
2023/05/13 10:16:32;;;;;;;3.63;2.53;;;13.50;99.90;;;;;;4160169;28;20045;-56
2023/05/13 10:18:33;;;;;;;2.47;2.23;;;13.50;99.90;;;;;;4159235;28;20050;-59
2023/05/13 10:20:35;;;;;;;4.30;2.30;;;13.40;99.90;;;;;;4160902;28;20034;-60
2023/05/13 10:22:36;;;;;;;3.23;2.83;;;13.50;99.90;;;;;;4162239;28;20099;-59
2023/05/13 10:24:38;;;;;;;3.50;2.20;;;13.40;99.90;;;;;;4163104;28;20053;-64
2023/05/13 10:26:42;;;;;;;3.70;2.47;;;13.30;99.90;;;;;;4162618;28;20025;-59
2023/05/13 10:28:44;;;;;;;2.53;2.33;;;13.40;99.90;;;;;;4163350;28;20083;-60
2023/05/13 10:30:48;;;;;;;3.80;2.33;;;13.40;99.90;;;;;;4162948;28;20029;-61
2023/05/13 10:32:49;;;;;;;2.50;2.30;;;13.40;99.90;;;;;;4163160;28;20555;-61
2023/05/13 10:35:04;;;;;;;4.00;2.30;;;13.40;99.90;;;;;;4163062;28;20469;-61
2023/05/13 10:37:26;;;;;;;3.33;2.30;;;13.50;99.90;;;;;;4163094;28;20085;-61
2023/05/13 10:40:05;;;;;;;6.23;2.53;;;13.50;99.90;;;;;;4163012;28;20083;-60
2023/05/13 10:42:43;;;;;;;4.60;3.00;;;13.60;99.90;;;;;;4163286;28;20060;-58